createdAt,value
2019-02-27T00:00:49.800Z,3.20
2019-02-27T00:03:18.971Z,3.20
2019-02-27T00:05:47.396Z,3.20
2019-02-27T00:08:15.814Z,3.10
2019-02-27T00:10:44.240Z,3.10
2019-02-27T00:13:12.652Z,3.20
2019-02-27T00:18:09.160Z,3.20
2019-02-27T00:25:36.097Z,3.10
2019-02-27T00:28:04.601Z,3.00
2019-02-27T00:30:33.014Z,3.00
2019-02-27T00:33:01.437Z,2.90
2019-02-27T00:35:29.848Z,2.80
2019-02-27T00:37:58.268Z,2.80
2019-02-27T00:40:26.681Z,2.80
2019-02-27T00:42:55.191Z,2.70
2019-02-27T00:45:23.604Z,2.60
2019-02-27T00:47:53.315Z,2.60
2019-02-27T00:50:22.221Z,2.50
2019-02-27T00:52:51.090Z,2.40
2019-02-27T01:00:18.050Z,2.20
2019-02-27T01:02:46.473Z,2.20
2019-02-27T01:05:14.957Z,2.20
2019-02-27T01:07:43.450Z,2.10
2019-02-27T01:10:13.012Z,2.00
2019-02-27T01:12:41.609Z,2.00
2019-02-27T01:15:12.237Z,1.80
2019-02-27T01:17:40.735Z,1.70
2019-02-27T01:20:14.117Z,1.60
2019-02-27T01:22:42.547Z,1.60
2019-02-27T01:25:11.053Z,1.70
2019-02-27T01:27:39.485Z,1.70
2019-02-27T01:30:13.737Z,1.80
2019-02-27T01:32:42.429Z,1.80
2019-02-27T01:35:11.991Z,1.90
2019-02-27T01:37:40.421Z,2.00
2019-02-27T01:40:11.840Z,2.10
2019-02-27T01:42:40.265Z,2.10
2019-02-27T01:45:11.521Z,2.20
2019-02-27T01:47:39.944Z,2.20
2019-02-27T01:52:52.808Z,2.20
2019-02-27T01:55:22.438Z,2.20
2019-02-27T01:57:51.022Z,2.20
2019-02-27T02:00:23.070Z,2.00
2019-02-27T02:05:18.065Z,1.80
2019-02-27T02:07:48.206Z,1.60
2019-02-27T02:10:17.048Z,1.60
2019-02-27T02:12:48.417Z,1.60
2019-02-27T02:18:06.717Z,1.70
2019-02-27T02:20:54.781Z,1.80
2019-02-27T02:23:32.245Z,1.90
2019-02-27T02:26:48.946Z,2.00
2019-02-27T02:29:37.000Z,2.10
2019-02-27T02:32:23.882Z,2.20
2019-02-27T02:37:44.637Z,2.30
2019-02-27T02:40:37.397Z,2.30
2019-02-27T02:43:24.109Z,2.30
2019-02-27T02:46:00.885Z,2.20
2019-02-27T02:51:37.184Z,1.80
2019-02-27T02:59:50.405Z,1.70
2019-02-27T03:02:23.755Z,1.70
2019-02-27T03:07:51.742Z,1.70
2019-02-27T03:10:26.157Z,1.60
2019-02-27T03:13:12.021Z,1.60
2019-02-27T03:16:07.807Z,1.70
2019-02-27T03:18:57.103Z,1.70
2019-02-27T03:21:52.056Z,1.80
2019-02-27T03:27:17.491Z,1.90
2019-02-27T03:30:04.082Z,2.00
2019-02-27T03:32:43.239Z,2.00
2019-02-27T03:35:43.068Z,2.10
2019-02-27T03:38:26.609Z,2.20
2019-02-27T03:41:24.032Z,2.00
2019-02-27T03:44:01.514Z,1.90
2019-02-27T03:46:51.141Z,1.80
2019-02-27T03:49:40.699Z,1.70
2019-02-27T03:54:56.960Z,1.50
2019-02-27T03:57:45.778Z,1.50
2019-02-27T04:03:07.625Z,1.80
2019-02-27T04:05:55.993Z,1.80
2019-02-27T04:08:50.086Z,1.90
2019-02-27T04:11:18.501Z,1.90
2019-02-27T04:13:46.929Z,2.00
2019-02-27T04:16:15.601Z,2.10
2019-02-27T04:21:12.473Z,2.10
2019-02-27T04:23:40.887Z,2.10
2019-02-27T04:26:09.304Z,2.20
2019-02-27T04:31:05.850Z,2.30
2019-02-27T04:36:02.352Z,2.30
2019-02-27T04:38:30.756Z,2.30
2019-02-27T04:40:59.192Z,2.50
2019-02-27T04:43:31.975Z,2.50
2019-02-27T04:45:57.736Z,2.50
2019-02-27T04:48:27.055Z,2.60
2019-02-27T04:50:56.378Z,2.60
2019-02-27T04:53:24.785Z,2.50
2019-02-27T04:55:53.220Z,2.40
2019-02-27T04:58:21.640Z,2.40
2019-02-27T05:00:50.058Z,2.40
2019-02-27T05:03:18.492Z,2.30
2019-02-27T05:05:46.904Z,2.30
2019-02-27T05:08:15.317Z,2.20
2019-02-27T05:10:43.750Z,2.00
2019-02-27T05:13:12.161Z,1.80
2019-02-27T05:15:40.586Z,1.80
2019-02-27T05:18:09.008Z,1.80
2019-02-27T05:20:37.740Z,1.70
2019-02-27T05:23:06.233Z,1.70
2019-02-27T05:25:34.655Z,1.60
2019-02-27T05:28:03.068Z,1.70
2019-02-27T05:30:31.490Z,1.60
2019-02-27T05:33:02.149Z,1.60
2019-02-27T05:35:30.133Z,1.50
2019-02-27T05:37:58.858Z,1.50
2019-02-27T05:40:27.268Z,1.50
2019-02-27T05:42:55.692Z,1.50
2019-02-27T05:45:24.112Z,1.50
2019-02-27T05:47:52.526Z,1.60
2019-02-27T05:50:20.943Z,1.60
2019-02-27T05:55:18.238Z,1.60
2019-02-27T05:57:46.665Z,1.60
2019-02-27T06:00:18.348Z,1.70
2019-02-27T06:02:46.789Z,1.60
2019-02-27T06:05:15.386Z,1.60
2019-02-27T06:07:43.844Z,1.60
2019-02-27T06:10:14.354Z,1.60
2019-02-27T06:12:43.056Z,1.50
2019-02-27T06:15:14.004Z,1.50
2019-02-27T06:17:43.570Z,1.40
2019-02-27T06:20:12.813Z,1.40
2019-02-27T06:22:41.239Z,1.40
2019-02-27T06:27:39.962Z,1.40
2019-02-27T06:30:19.513Z,1.40
2019-02-27T06:33:11.610Z,1.40
2019-02-27T06:35:37.416Z,1.40
2019-02-27T06:38:05.848Z,1.40
2019-02-27T06:45:30.510Z,1.60
2019-02-27T06:50:27.086Z,1.70
2019-02-27T06:57:53.414Z,1.70
2019-02-27T07:00:23.929Z,1.70
2019-02-27T07:02:55.136Z,1.60
2019-02-27T07:05:22.509Z,1.50
2019-02-27T07:07:51.197Z,1.50
2019-02-27T07:12:49.072Z,1.50
2019-02-27T07:15:21.672Z,1.50
2019-02-27T07:17:50.177Z,1.60
2019-02-27T07:20:24.029Z,1.70
2019-02-27T07:25:18.038Z,1.80
2019-02-27T07:32:46.780Z,1.90
2019-02-27T07:35:15.875Z,2.00
2019-02-27T07:37:47.184Z,2.10
2019-02-27T07:40:18.436Z,2.10
2019-02-27T07:42:46.868Z,2.20
2019-02-27T07:50:15.493Z,2.60
2019-02-27T07:55:21.674Z,2.80
2019-02-27T08:00:37.066Z,2.90
2019-02-27T08:03:09.139Z,3.10
2019-02-27T08:05:35.951Z,3.10
2019-02-27T08:08:04.372Z,3.20
2019-02-27T08:10:36.766Z,3.30
2019-02-27T08:13:02.951Z,3.40
2019-02-27T08:20:28.100Z,3.70
2019-02-27T08:22:57.747Z,3.80
2019-02-27T08:27:54.433Z,4.00
2019-02-27T08:32:51.769Z,4.20
2019-02-27T08:37:48.291Z,4.40
2019-02-27T08:40:17.031Z,4.50
2019-02-27T08:42:45.450Z,4.60
2019-02-27T08:47:44.706Z,4.80
2019-02-27T08:50:17.555Z,4.90
2019-02-27T09:00:23.369Z,5.40
2019-02-27T09:02:52.297Z,5.40
2019-02-27T09:05:21.093Z,5.50
2019-02-27T09:07:50.080Z,5.70
2019-02-27T09:10:20.157Z,5.70
2019-02-27T09:12:49.537Z,5.80
2019-02-27T09:25:17.564Z,6.40
2019-02-27T09:30:19.729Z,6.70
2019-02-27T09:32:48.485Z,6.90
2019-02-27T09:37:48.348Z,7.20
2019-02-27T09:40:23.794Z,7.30
2019-02-27T09:42:53.136Z,7.50
2019-02-27T09:45:27.505Z,7.60
2019-02-27T09:50:34.327Z,8.00
2019-02-27T09:53:03.645Z,8.20
2019-02-27T09:55:32.841Z,8.40
2019-02-27T09:58:01.328Z,8.50
2019-02-27T10:00:37.289Z,8.70
2019-02-27T10:03:05.708Z,8.80
2019-02-27T10:05:36.674Z,8.90
2019-02-27T10:08:07.509Z,9.10
2019-02-27T10:10:36.612Z,9.20
2019-02-27T10:18:03.055Z,9.50
2019-02-27T10:27:55.863Z,9.90
2019-02-27T10:30:24.554Z,10.00
2019-02-27T10:32:53.296Z,10.10
2019-02-27T10:35:22.992Z,10.20
2019-02-27T10:37:54.313Z,10.40
2019-02-27T10:42:51.383Z,10.80
2019-02-27T10:45:20.008Z,11.00
2019-02-27T10:47:48.434Z,11.10
2019-02-27T10:50:16.859Z,11.20
2019-02-27T10:52:45.277Z,11.30
2019-02-27T10:57:45.520Z,11.50
2019-02-27T11:00:42.036Z,11.50
2019-02-27T11:03:10.455Z,11.60
2019-02-27T11:05:39.721Z,11.60
2019-02-27T11:08:08.425Z,11.70
2019-02-27T11:13:06.718Z,12.00
2019-02-27T11:20:32.995Z,12.40
2019-02-27T11:25:30.855Z,12.50
2019-02-27T11:27:59.365Z,12.60
2019-02-27T11:31:02.024Z,12.70
2019-02-27T11:33:33.433Z,13.00
2019-02-27T11:36:03.175Z,13.10
2019-02-27T11:38:31.562Z,13.20
2019-02-27T11:40:59.992Z,13.40
2019-02-27T11:43:28.408Z,13.50
2019-02-27T11:45:58.055Z,13.60
2019-02-27T12:00:48.141Z,13.90
2019-02-27T12:03:16.897Z,13.90
2019-02-27T12:05:45.357Z,13.90
2019-02-27T12:08:14.006Z,14.00
2019-02-27T12:13:10.592Z,14.10
2019-02-27T12:15:43.374Z,14.10
2019-02-27T12:30:37.188Z,14.40
2019-02-27T12:33:03.632Z,14.40
2019-02-27T12:40:29.334Z,14.40
2019-02-27T12:42:57.758Z,14.40
2019-02-27T12:45:29.700Z,14.60
2019-02-27T12:47:58.563Z,14.70
2019-02-27T12:50:31.188Z,14.80
2019-02-27T13:02:52.818Z,15.20
2019-02-27T13:05:24.213Z,15.30
2019-02-27T13:07:51.789Z,15.50
2019-02-27T13:10:22.680Z,15.70
2019-02-27T13:12:51.925Z,15.80
2019-02-27T13:17:50.296Z,16.00
2019-02-27T13:20:21.157Z,16.00
2019-02-27T13:30:16.469Z,16.10
2019-02-27T13:32:45.152Z,16.10
2019-02-27T13:35:14.455Z,16.10
2019-02-27T13:40:15.783Z,16.30
2019-02-27T13:42:44.441Z,16.40
2019-02-27T13:47:42.364Z,16.40
2019-02-27T13:50:11.605Z,16.40
2019-02-27T13:52:59.379Z,16.50
2019-02-27T14:00:28.213Z,16.70
2019-02-27T14:05:44.494Z,16.60
2019-02-27T14:10:41.236Z,16.80
2019-02-27T14:13:09.945Z,16.90
2019-02-27T14:15:38.517Z,17.00
2019-02-27T14:18:07.288Z,17.10
2019-02-27T14:30:42.120Z,17.20
2019-02-27T14:33:11.122Z,17.20
2019-02-27T14:35:39.777Z,17.10
2019-02-27T14:43:06.554Z,17.20
2019-02-27T14:48:04.876Z,17.30
2019-02-27T14:50:34.586Z,17.30
2019-02-27T14:53:03.224Z,17.30
2019-02-27T14:55:31.648Z,17.20
2019-02-27T15:00:40.043Z,17.10
2019-02-27T15:03:05.939Z,17.20
2019-02-27T15:05:36.513Z,17.30
2019-02-27T15:08:04.633Z,17.30
2019-02-27T15:17:59.361Z,17.10
2019-02-27T15:22:56.532Z,17.20
2019-02-27T15:27:58.201Z,17.10
2019-02-27T15:32:52.428Z,17.10
2019-02-27T15:35:40.182Z,17.20
2019-02-27T15:38:11.415Z,17.20
2019-02-27T15:43:11.367Z,17.10
2019-02-27T15:50:36.147Z,17.00
2019-02-27T15:53:04.838Z,17.00
2019-02-27T15:55:35.207Z,16.90
2019-02-27T16:00:32.089Z,16.80
2019-02-27T16:03:00.500Z,16.80
2019-02-27T16:05:31.407Z,16.70
2019-02-27T16:07:59.074Z,16.70
2019-02-27T16:10:28.738Z,16.70
2019-02-27T16:13:00.347Z,16.60
2019-02-27T16:27:55.445Z,15.70
2019-02-27T16:30:31.093Z,15.60
2019-02-27T16:32:56.622Z,15.50
2019-02-27T16:37:56.615Z,15.30
2019-02-27T16:40:24.710Z,15.10
2019-02-27T16:42:53.141Z,15.00
2019-02-27T16:45:33.576Z,14.90
2019-02-27T16:48:00.904Z,14.70
2019-02-27T16:52:57.426Z,14.40
2019-02-27T17:02:53.858Z,14.00
2019-02-27T17:05:22.394Z,13.90
2019-02-27T17:07:50.818Z,13.70
2019-02-27T17:10:22.037Z,13.50
2019-02-27T17:12:50.451Z,13.10
2019-02-27T17:15:19.292Z,12.70
2019-02-27T17:22:45.291Z,11.80
2019-02-27T17:30:24.384Z,11.40
2019-02-27T17:32:53.018Z,11.00
2019-02-27T17:35:23.628Z,10.60
2019-02-27T17:40:19.819Z,10.00
2019-02-27T17:42:53.204Z,9.70
2019-02-27T17:45:21.973Z,9.70
2019-02-27T17:47:50.389Z,9.50
2019-02-27T17:50:19.228Z,9.40
2019-02-27T17:57:46.661Z,9.00
2019-02-27T18:00:50.034Z,9.00
2019-02-27T18:03:16.475Z,9.00
2019-02-27T18:05:44.884Z,9.00
2019-02-27T18:08:15.802Z,8.80
2019-02-27T18:10:43.440Z,8.70
2019-02-27T18:13:11.842Z,8.60
2019-02-27T18:15:40.264Z,8.60
2019-02-27T18:18:10.593Z,8.40
2019-02-27T18:20:39.049Z,8.30
2019-02-27T18:23:07.546Z,8.10
2019-02-27T18:25:41.056Z,8.00
2019-02-27T18:28:06.093Z,7.80
2019-02-27T18:30:34.545Z,7.40
2019-02-27T18:33:02.960Z,7.20
2019-02-27T18:35:31.711Z,7.00
2019-02-27T18:38:00.130Z,6.90
2019-02-27T18:40:28.536Z,6.80
2019-02-27T18:42:56.967Z,6.90
2019-02-27T18:45:27.412Z,6.90
2019-02-27T18:47:55.829Z,7.00
2019-02-27T18:50:25.031Z,7.10
2019-02-27T18:52:54.258Z,7.10
2019-02-27T18:55:22.670Z,7.10
2019-02-27T18:57:51.161Z,6.90
2019-02-27T19:00:24.214Z,6.90
2019-02-27T19:02:58.508Z,7.00
2019-02-27T19:05:27.064Z,6.90
2019-02-27T19:07:55.795Z,6.90
2019-02-27T19:10:43.970Z,6.90
2019-02-27T19:13:12.460Z,6.80
2019-02-27T19:15:45.289Z,6.80
2019-02-27T19:23:09.529Z,6.90
2019-02-27T19:30:34.999Z,6.80
2019-02-27T19:33:03.496Z,6.60
2019-02-27T19:35:32.991Z,6.40
2019-02-27T19:38:01.431Z,6.20
2019-02-27T19:40:31.179Z,6.10
2019-02-27T20:00:33.791Z,5.70
2019-02-27T20:03:01.165Z,5.70
2019-02-27T20:05:29.402Z,5.60
2019-02-27T20:10:30.196Z,5.50
2019-02-27T20:12:57.669Z,5.40
2019-02-27T20:15:27.054Z,5.40
2019-02-27T20:20:24.112Z,5.20
2019-02-27T20:22:54.693Z,5.20
2019-02-27T20:25:28.552Z,5.10
2019-02-27T20:30:26.897Z,5.00
2019-02-27T20:32:55.393Z,4.90
2019-02-27T20:35:23.803Z,4.80
2019-02-27T20:37:52.261Z,4.70
2019-02-27T20:47:48.456Z,4.60
2019-02-27T20:50:41.737Z,4.60
2019-02-27T20:53:12.208Z,4.60
2019-02-27T20:55:40.620Z,4.70
2019-02-27T20:58:09.044Z,4.70
2019-02-27T21:00:37.706Z,4.60
2019-02-27T21:03:06.189Z,4.50
2019-02-27T21:05:34.681Z,4.50
2019-02-27T21:08:03.105Z,4.50
2019-02-27T21:10:35.295Z,4.50
2019-02-27T21:13:03.735Z,4.50
2019-02-27T21:15:33.156Z,4.50
2019-02-27T21:18:02.007Z,4.50
2019-02-27T21:20:30.412Z,4.50
2019-02-27T21:23:00.050Z,4.50
2019-02-27T21:25:28.715Z,4.50
2019-02-27T21:27:57.130Z,4.50
2019-02-27T21:30:26.105Z,4.50
2019-02-27T21:32:54.519Z,4.40
2019-02-27T21:35:22.932Z,4.40
2019-02-27T21:37:51.335Z,4.40
2019-02-27T21:40:20.026Z,4.40
2019-02-27T21:42:50.740Z,4.50
2019-02-27T21:45:43.201Z,4.60
2019-02-27T21:48:11.923Z,4.70
2019-02-27T21:50:40.625Z,4.80
2019-02-27T21:53:09.310Z,4.40
2019-02-27T21:55:37.742Z,4.20
2019-02-27T21:58:06.388Z,4.10
2019-02-27T22:00:34.807Z,4.20
2019-02-27T22:03:05.011Z,4.20
2019-02-27T22:05:42.298Z,4.30
2019-02-27T22:08:05.421Z,4.40
2019-02-27T22:10:33.720Z,4.50
2019-02-27T22:13:02.149Z,4.70
2019-02-27T22:15:31.256Z,4.70
2019-02-27T22:17:59.674Z,4.80
2019-02-27T22:20:28.192Z,4.80
2019-02-27T22:22:56.621Z,4.80
2019-02-27T22:25:44.453Z,4.80
2019-02-27T22:28:12.875Z,4.80
2019-02-27T22:30:41.337Z,4.80
2019-02-27T22:33:09.775Z,4.80
2019-02-27T22:35:38.609Z,4.80
2019-02-27T22:38:07.196Z,4.80
2019-02-27T22:40:37.904Z,4.70
2019-02-27T22:43:05.769Z,4.70
2019-02-27T22:45:36.109Z,4.60
2019-02-27T22:48:04.329Z,4.60
2019-02-27T22:50:33.077Z,4.50
2019-02-27T22:53:01.490Z,4.50
2019-02-27T22:55:29.913Z,4.40
2019-02-27T22:57:58.325Z,4.40
2019-02-27T23:00:43.144Z,4.30
2019-02-27T23:03:10.285Z,4.30
2019-02-27T23:05:39.118Z,4.30
2019-02-27T23:08:07.980Z,4.30
2019-02-27T23:10:36.401Z,4.30
2019-02-27T23:13:04.814Z,4.30
2019-02-27T23:15:33.229Z,4.20
2019-02-27T23:18:02.505Z,4.20
2019-02-27T23:20:32.112Z,4.20
2019-02-27T23:23:02.648Z,4.30
2019-02-27T23:25:30.672Z,4.30
2019-02-27T23:28:00.736Z,4.30
2019-02-27T23:30:29.301Z,4.30
2019-02-27T23:32:59.378Z,4.30
2019-02-27T23:35:27.866Z,4.30
2019-02-27T23:37:56.287Z,4.30
2019-02-27T23:40:25.540Z,4.20
2019-02-27T23:42:53.970Z,4.20
2019-02-27T23:45:22.392Z,4.10
2019-02-27T23:47:50.797Z,4.10
2019-02-27T23:50:19.226Z,4.00
2019-02-27T23:52:47.645Z,3.90
2019-02-27T23:55:16.170Z,3.90
2019-02-27T23:57:44.587Z,3.90
